Time;durP1;ratioP1;P1;durP2;ratioP2;P2;SDS_P1;SDS_P2;PMS_P1;PMS_P2;Temp;Humidity;BMP_temperature;BMP_pressure;BME280_temperature;BME280_humidity;BME280_pressure;Samples;Min_cycle;Max_cycle;Signal;HPM_P1;HPM_P2
2023/08/01 00:00:52;;;;;;;93.97;73.67;;;18.00;99.90;;;;;;5017078;28;20484;-80
2023/08/01 00:03:17;;;;;;;96.57;75.90;;;18.10;99.90;;;;;;5017163;28;20499;-81
2023/08/01 00:05:44;;;;;;;97.80;80.57;;;18.10;99.90;;;;;;5017447;28;20173;-80
2023/08/01 00:08:14;;;;;;;98.03;76.90;;;18.10;99.90;;;;;;5017461;28;20642;-80
2023/08/01 00:10:40;;;;;;;93.13;69.43;;;18.20;99.90;;;;;;4999748;28;20512;-81
2023/08/01 00:13:06;;;;;;;99.90;88.50;;;18.20;99.90;;;;;;5017750;28;20405;-81
2023/08/01 00:15:32;;;;;;;99.40;75.40;;;18.20;99.90;;;;;;4999832;28;20480;-81
2023/08/01 00:17:58;;;;;;;98.70;76.33;;;18.20;99.90;;;;;;5017330;28;20417;-81
2023/08/01 00:20:26;;;;;;;89.57;60.30;;;18.20;99.90;;;;;;5000210;28;20264;-82
2023/08/01 00:22:52;;;;;;;94.87;63.77;;;18.10;99.90;;;;;;5018102;28;20158;-81
2023/08/01 00:25:18;;;;;;;91.57;65.97;;;18.10;99.90;;;;;;5016889;28;20405;-81
2023/08/01 00:27:44;;;;;;;92.13;63.83;;;18.10;99.90;;;;;;5017042;28;20174;-81
2023/08/01 00:30:10;;;;;;;89.33;59.67;;;18.10;99.90;;;;;;5017097;28;20437;-81
2023/08/01 00:32:37;;;;;;;91.90;63.50;;;18.10;99.90;;;;;;4999884;28;20420;-81
2023/08/01 00:35:03;;;;;;;90.37;62.47;;;18.10;99.90;;;;;;4999524;28;20480;-81
2023/08/01 00:37:29;;;;;;;96.27;65.27;;;18.10;99.90;;;;;;4999963;28;20415;-81
2023/08/01 00:39:57;;;;;;;95.37;61.00;;;18.00;99.90;;;;;;5017094;28;20515;-81
2023/08/01 00:42:23;;;;;;;95.80;73.30;;;18.10;99.90;;;;;;5017461;28;20245;-81
2023/08/01 00:44:49;;;;;;;94.10;60.47;;;18.10;99.90;;;;;;5017023;28;20832;-81
2023/08/01 00:47:15;;;;;;;90.27;60.17;;;18.10;99.90;;;;;;5017271;28;20174;-81
2023/08/01 00:49:41;;;;;;;91.43;66.23;;;18.10;99.90;;;;;;5017212;28;20740;-81
2023/08/01 00:52:08;;;;;;;95.37;63.83;;;18.10;99.90;;;;;;5016776;28;20412;-80
2023/08/01 00:54:36;;;;;;;92.00;65.73;;;18.00;99.90;;;;;;5016556;28;20816;-81
2023/08/01 00:57:05;;;;;;;92.40;66.77;;;18.10;99.90;;;;;;5016907;28;20467;-81
2023/08/01 00:59:32;;;;;;;90.33;60.63;;;18.10;99.90;;;;;;5016876;28;20425;-81
2023/08/01 01:01:59;;;;;;;91.50;66.83;;;18.10;99.90;;;;;;4982989;28;20452;-81
2023/08/01 01:04:25;;;;;;;93.23;65.13;;;18.20;99.90;;;;;;5016907;28;20413;-81
2023/08/01 01:07:03;;;;;;;91.83;64.07;;;18.20;99.90;;;;;;4999304;28;20417;-82
2023/08/01 01:09:33;;;;;;;89.87;61.93;;;18.20;99.90;;;;;;5017188;28;20436;-81
2023/08/01 01:11:59;;;;;;;90.47;61.77;;;18.10;99.90;;;;;;5016777;28;20503;-81
2023/08/01 01:14:28;;;;;;;87.53;55.93;;;18.10;99.90;;;;;;4999213;28;20455;-81
2023/08/01 01:16:55;;;;;;;89.83;62.47;;;18.20;99.90;;;;;;5017160;28;20408;-81
2023/08/01 01:19:21;;;;;;;94.07;70.97;;;18.20;99.90;;;;;;5017193;28;20517;-82
2023/08/01 01:21:48;;;;;;;96.70;67.17;;;18.20;99.90;;;;;;5016866;28;20500;-81
2023/08/01 01:24:15;;;;;;;94.60;69.90;;;18.20;99.90;;;;;;5017179;28;20197;-81
2023/08/01 01:26:42;;;;;;;90.00;62.23;;;18.20;99.90;;;;;;5017910;28;20514;-81
2023/08/01 01:29:09;;;;;;;92.80;70.07;;;18.20;99.90;;;;;;5017720;28;20464;-81
2023/08/01 01:31:36;;;;;;;95.20;63.53;;;18.20;99.90;;;;;;5017014;28;20451;-81
2023/08/01 01:34:03;;;;;;;93.53;70.33;;;18.30;99.90;;;;;;5017641;28;20405;-82
2023/08/01 01:36:32;;;;;;;92.97;71.23;;;18.40;99.90;;;;;;5017187;28;20409;-81
2023/08/01 01:38:58;;;;;;;92.83;71.07;;;18.40;99.90;;;;;;4998399;28;20437;-82
2023/08/01 01:41:24;;;;;;;91.83;68.87;;;18.40;99.90;;;;;;5017738;28;20973;-82
2023/08/01 01:43:49;;;;;;;91.50;66.83;;;18.40;99.90;;;;;;5017732;28;20325;-82
2023/08/01 01:46:15;;;;;;;93.83;57.87;;;18.30;99.90;;;;;;5000350;28;20553;-82
2023/08/01 01:48:42;;;;;;;93.37;72.50;;;18.20;99.90;;;;;;5017626;28;20193;-82
2023/08/01 01:51:08;;;;;;;93.43;70.27;;;18.30;99.90;;;;;;5017560;28;20173;-82
2023/08/01 01:53:33;;;;;;;99.27;70.47;;;18.30;99.90;;;;;;5017221;28;20405;-81
2023/08/01 01:55:59;;;;;;;92.77;71.03;;;18.30;99.90;;;;;;5016342;28;20444;-81
2023/08/01 01:58:25;;;;;;;94.47;69.93;;;18.30;99.90;;;;;;5016773;28;20193;-81
2023/08/01 02:00:50;;;;;;;89.30;62.47;;;18.30;99.90;;;;;;5016027;28;20174;-81
2023/08/01 02:03:16;;;;;;;95.57;70.63;;;18.20;99.90;;;;;;5016855;28;20232;-81
2023/08/01 02:05:42;;;;;;;94.87;66.63;;;18.20;99.90;;;;;;5016853;28;20162;-81
2023/08/01 02:08:07;;;;;;;90.47;65.60;;;18.30;99.90;;;;;;5016270;28;20244;-81
2023/08/01 02:10:33;;;;;;;97.27;71.03;;;18.20;99.90;;;;;;5016714;28;20185;-81
2023/08/01 02:12:59;;;;;;;90.13;64.03;;;18.20;99.90;;;;;;5017514;28;20503;-82
2023/08/01 02:15:24;;;;;;;91.17;67.50;;;18.20;99.90;;;;;;5016609;28;20186;-82
2023/08/01 02:17:50;;;;;;;90.37;64.53;;;18.20;99.90;;;;;;4999678;28;20174;-82
2023/08/01 02:20:16;;;;;;;87.43;54.80;;;18.20;99.90;;;;;;5098419;22;20647;-84
2023/08/01 02:22:41;;;;;;;89.03;61.73;;;18.10;99.90;;;;;;4997625;28;20170;-84
2023/08/01 02:25:07;;;;;;;91.77;69.07;;;18.00;99.90;;;;;;4997412;28;20169;-84
2023/08/01 02:27:33;;;;;;;90.67;66.83;;;18.00;99.90;;;;;;4997651;28;20174;-84
2023/08/01 02:29:59;;;;;;;89.33;61.23;;;18.00;99.90;;;;;;5015004;28;20416;-84
2023/08/01 02:32:25;;;;;;;90.63;66.90;;;18.00;99.90;;;;;;5016278;28;20182;-85
2023/08/01 02:34:50;;;;;;;91.00;66.47;;;18.00;99.90;;;;;;5015333;28;20229;-85
2023/08/01 02:37:16;;;;;;;91.23;65.00;;;17.90;99.90;;;;;;5014847;28;20163;-85
2023/08/01 02:39:41;;;;;;;91.33;66.00;;;17.90;99.90;;;;;;5015360;28;20182;-84
2023/08/01 02:42:08;;;;;;;90.13;66.03;;;17.80;99.90;;;;;;5015085;28;20162;-83
2023/08/01 02:44:34;;;;;;;92.77;70.33;;;17.80;99.90;;;;;;5015334;28;20178;-84
2023/08/01 02:46:59;;;;;;;93.73;72.83;;;17.80;99.90;;;;;;5014882;28;20541;-84
2023/08/01 02:49:25;;;;;;;94.93;77.03;;;17.80;99.90;;;;;;5016190;28;20435;-84
2023/08/01 02:51:51;;;;;;;102.70;91.50;;;17.70;99.90;;;;;;5001236;28;20166;-84
2023/08/01 02:54:17;;;;;;;94.37;75.77;;;17.70;99.90;;;;;;5021139;28;20186;-82
2023/08/01 02:56:45;;;;;;;97.07;83.70;;;17.60;99.90;;;;;;5005246;28;20162;-83
2023/08/01 02:59:11;;;;;;;104.60;93.20;;;17.60;99.90;;;;;;5018814;28;20261;-84
2023/08/01 03:01:38;;;;;;;95.83;79.13;;;17.50;99.90;;;;;;5018929;28;20415;-84
2023/08/01 03:04:06;;;;;;;97.00;80.87;;;17.60;99.90;;;;;;5018514;28;20175;-84
2023/08/01 03:06:32;;;;;;;98.07;82.77;;;17.50;99.90;;;;;;5018732;28;20401;-84
2023/08/01 03:08:58;;;;;;;95.90;78.50;;;17.50;99.90;;;;;;5018422;28;20421;-83
2023/08/01 03:11:24;;;;;;;96.70;79.23;;;17.50;99.90;;;;;;5018546;28;20397;-84
2023/08/01 03:13:50;;;;;;;106.17;94.87;;;17.40;99.90;;;;;;5018514;28;20408;-84
2023/08/01 03:16:17;;;;;;;96.83;76.37;;;17.50;99.90;;;;;;5018307;28;20170;-84
2023/08/01 03:18:45;;;;;;;95.73;78.27;;;17.40;99.90;;;;;;5018190;28;20419;-84
2023/08/01 03:21:11;;;;;;;101.23;80.97;;;17.50;99.90;;;;;;5018273;28;20407;-84
2023/08/01 03:23:37;;;;;;;94.57;76.00;;;17.50;99.90;;;;;;5018184;28;20393;-83
2023/08/01 03:26:03;;;;;;;96.50;76.97;;;17.40;99.90;;;;;;5001130;28;20170;-84
2023/08/01 03:28:29;;;;;;;96.83;82.03;;;17.40;99.90;;;;;;5018525;28;20182;-83
2023/08/01 03:30:54;;;;;;;93.33;70.30;;;17.30;99.90;;;;;;5094965;22;20169;-84
2023/08/01 03:33:21;;;;;;;94.63;74.33;;;17.30;99.90;;;;;;5018023;28;20393;-84
2023/08/01 03:35:47;;;;;;;100.23;79.37;;;17.30;99.90;;;;;;5000214;28;20201;-83
2023/08/01 03:38:12;;;;;;;96.53;78.23;;;17.40;99.90;;;;;;5018155;28;20412;-84
2023/08/01 03:40:38;;;;;;;93.83;73.93;;;17.30;99.90;;;;;;5018650;28;20749;-84
2023/08/01 03:43:05;;;;;;;93.80;72.20;;;17.30;99.90;;;;;;5018381;28;20405;-84
2023/08/01 03:45:30;;;;;;;96.93;74.90;;;17.30;99.90;;;;;;5000024;28;20543;-83
2023/08/01 03:47:56;;;;;;;100.70;87.70;;;17.30;99.90;;;;;;5018284;28;20405;-84
2023/08/01 03:50:22;;;;;;;95.90;75.50;;;17.30;99.90;;;;;;5017563;28;20253;-84
2023/08/01 03:52:48;;;;;;;91.53;67.27;;;17.30;99.90;;;;;;5017421;28;20249;-84
2023/08/01 03:55:13;;;;;;;95.57;72.30;;;17.30;99.90;;;;;;5017314;28;20531;-84
2023/08/01 03:57:39;;;;;;;98.03;78.97;;;17.30;99.90;;;;;;4999656;28;20189;-84
2023/08/01 04:00:14;;;;;;;97.20;71.77;;;17.30;99.90;;;;;;5016927;28;20244;-84
2023/08/01 04:02:41;;;;;;;93.60;70.63;;;17.30;99.90;;;;;;4999379;28;20203;-84
2023/08/01 04:05:08;;;;;;;98.93;76.00;;;17.20;99.90;;;;;;5000102;28;20416;-84
2023/08/01 04:07:35;;;;;;;99.57;80.30;;;17.20;99.90;;;;;;5000306;28;20405;-84
2023/08/01 04:10:01;;;;;;;99.10;85.53;;;17.20;99.90;;;;;;5017128;28;20460;-84
2023/08/01 04:12:26;;;;;;;98.73;81.83;;;17.20;99.90;;;;;;5017312;28;20439;-84
2023/08/01 04:14:52;;;;;;;96.40;63.43;;;17.10;99.90;;;;;;5017149;28;20186;-84
2023/08/01 04:17:18;;;;;;;109.07;91.80;;;17.10;99.90;;;;;;5016884;28;20162;-84
2023/08/01 04:19:43;;;;;;;101.10;87.80;;;17.10;99.90;;;;;;5016758;28;20185;-84
2023/08/01 04:22:09;;;;;;;123.90;111.10;;;17.10;99.90;;;;;;5016966;28;20226;-84
2023/08/01 04:24:35;;;;;;;129.07;115.97;;;17.20;99.90;;;;;;5017628;28;20178;-82
2023/08/01 04:27:00;;;;;;;107.13;95.50;;;17.10;99.90;;;;;;5023167;28;20178;-84
2023/08/01 04:29:26;;;;;;;119.70;106.03;;;17.10;99.90;;;;;;5017029;28;20568;-84
2023/08/01 04:31:51;;;;;;;116.93;104.20;;;17.10;99.90;;;;;;5016896;28;20190;-84
2023/08/01 04:34:17;;;;;;;119.13;107.00;;;17.00;99.90;;;;;;4998959;28;20264;-84
2023/08/01 04:36:43;;;;;;;121.20;109.03;;;17.00;99.90;;;;;;5016792;28;20171;-85
2023/08/01 04:39:08;;;;;;;120.13;108.20;;;17.10;99.90;;;;;;5017267;28;20238;-84
2023/08/01 04:41:34;;;;;;;124.57;112.07;;;17.10;99.90;;;;;;4999479;28;20173;-84
2023/08/01 04:44:00;;;;;;;114.13;101.83;;;17.10;99.90;;;;;;5017194;28;20164;-84
2023/08/01 04:46:25;;;;;;;117.07;103.83;;;17.10;99.90;;;;;;5017213;28;20529;-84
2023/08/01 04:48:51;;;;;;;121.73;109.53;;;17.00;99.90;;;;;;5016865;28;20743;-84
2023/08/01 04:51:16;;;;;;;106.63;93.97;;;17.00;99.90;;;;;;5016812;28;20164;-84
2023/08/01 04:53:42;;;;;;;124.43;112.00;;;17.00;99.90;;;;;;4999365;28;20207;-84
2023/08/01 04:56:08;;;;;;;119.50;107.40;;;17.10;99.90;;;;;;4999007;28;20278;-84
2023/08/01 04:58:33;;;;;;;121.70;109.17;;;17.00;99.90;;;;;;5016295;28;20189;-84
2023/08/01 05:00:59;;;;;;;111.87;99.83;;;17.00;99.90;;;;;;5016962;28;20505;-83
2023/08/01 05:03:24;;;;;;;125.73;112.97;;;17.00;99.90;;;;;;5016571;28;20165;-83
2023/08/01 05:05:50;;;;;;;123.63;111.57;;;17.00;99.90;;;;;;5016666;28;20178;-84
2023/08/01 05:08:16;;;;;;;112.03;100.27;;;17.00;99.90;;;;;;5017630;28;20221;-84
2023/08/01 05:10:41;;;;;;;141.13;128.10;;;16.90;99.90;;;;;;5017912;28;20235;-84
2023/08/01 05:13:07;;;;;;;124.57;112.17;;;17.00;99.90;;;;;;4999569;28;20565;-84
2023/08/01 05:15:33;;;;;;;121.03;108.93;;;16.90;99.90;;;;;;5017342;28;20196;-84
2023/08/01 05:17:58;;;;;;;143.20;129.90;;;17.00;99.90;;;;;;5017598;28;20159;-84
2023/08/01 05:20:35;;;;;;;129.13;116.27;;;17.00;99.90;;;;;;5017739;28;20178;-84
2023/08/01 05:23:01;;;;;;;127.60;115.20;;;17.00;99.90;;;;;;4998792;28;20174;-84
2023/08/01 05:25:27;;;;;;;129.33;116.60;;;16.90;99.90;;;;;;4999009;28;20471;-84
2023/08/01 05:27:53;;;;;;;152.43;138.17;;;17.00;99.90;;;;;;4998719;28;20197;-83
2023/08/01 05:31:20;;;;;;;;;;;;;;;;;;;;;
2023/08/01 05:35:01;;;;;;;;;;;;;;;;;;;;;
2023/08/01 05:37:33;;;;;;;130.67;117.87;;;17.00;99.90;;;;;;5014766;28;20427;-90
2023/08/01 05:47:32;;;;;;;;;;;;;;;;;;;;;
2023/08/01 05:51:27;;;;;;;;;;;;;;;;;;;;;
2023/08/01 06:10:50;;;;;;;140.63;127.43;;;17.50;99.90;;;;;;5267140;22;20837;-86
2023/08/01 06:13:16;;;;;;;135.50;122.30;;;17.50;99.90;;;;;;5003316;28;20419;-85
2023/08/01 06:15:41;;;;;;;160.40;145.73;;;17.60;99.90;;;;;;5003274;28;20205;-87
2023/08/01 06:18:19;;;;;;;128.20;115.10;;;17.60;99.90;;;;;;5019197;28;20622;-85
2023/08/01 06:20:45;;;;;;;135.47;121.87;;;17.50;99.90;;;;;;5003060;28;20177;-86
2023/08/01 06:23:10;;;;;;;125.43;112.57;;;17.40;99.90;;;;;;5020846;28;20401;-86
2023/08/01 06:25:36;;;;;;;140.47;127.07;;;17.50;99.90;;;;;;5012227;28;20633;-85
2023/08/01 06:28:02;;;;;;;139.00;125.70;;;17.60;99.90;;;;;;5025865;28;20538;-85
2023/08/01 06:30:28;;;;;;;158.47;143.93;;;17.60;99.90;;;;;;5026457;28;20162;-86
2023/08/01 06:32:54;;;;;;;145.63;131.77;;;17.70;99.90;;;;;;5009044;28;20455;-86
2023/08/01 06:35:20;;;;;;;138.20;124.37;;;17.80;99.90;;;;;;5026610;28;20661;-86
2023/08/01 06:37:46;;;;;;;129.63;116.13;;;17.80;99.90;;;;;;5007197;28;20161;-86
2023/08/01 06:40:12;;;;;;;116.60;93.10;;;17.90;99.90;;;;;;5009901;28;20429;-85
2023/08/01 06:42:38;;;;;;;130.57;116.50;;;17.90;99.90;;;;;;5028287;28;20581;-86
2023/08/01 06:45:04;;;;;;;87.00;46.07;;;17.90;99.90;;;;;;5007806;28;20416;-85
2023/08/01 06:47:30;;;;;;;96.30;51.17;;;18.00;99.90;;;;;;5008268;28;20166;-85
2023/08/01 06:49:56;;;;;;;90.97;43.90;;;17.90;99.90;;;;;;5026595;28;20425;-85
2023/08/01 06:52:21;;;;;;;84.83;37.80;;;18.00;99.90;;;;;;5009500;28;20184;-86
2023/08/01 06:54:47;;;;;;;91.27;45.87;;;18.00;99.90;;;;;;5026761;28;20246;-85
2023/08/01 06:57:13;;;;;;;89.60;45.63;;;18.10;99.90;;;;;;5029095;28;20158;-86
2023/08/01 06:59:39;;;;;;;92.40;50.20;;;18.00;99.90;;;;;;5029127;28;20253;-86
2023/08/01 07:02:06;;;;;;;119.67;99.93;;;18.10;99.90;;;;;;5028338;28;20448;-86
2023/08/01 07:04:31;;;;;;;87.57;43.83;;;18.10;99.90;;;;;;5028985;28;20185;-86
2023/08/01 07:06:57;;;;;;;89.43;44.10;;;18.20;99.90;;;;;;5009723;28;20404;-85
2023/08/01 07:09:23;;;;;;;88.07;46.77;;;18.20;99.90;;;;;;5009512;28;20204;-86
2023/08/01 07:11:48;;;;;;;92.20;49.70;;;18.30;99.90;;;;;;5010709;28;20169;-86
2023/08/01 07:14:14;;;;;;;89.37;45.03;;;18.40;99.90;;;;;;5027490;28;20653;-86
2023/08/01 07:16:40;;;;;;;88.20;47.07;;;18.50;99.90;;;;;;5012657;28;20169;-85
2023/08/01 07:19:05;;;;;;;90.50;46.00;;;18.60;99.90;;;;;;5030231;28;20261;-84
2023/08/01 07:21:34;;;;;;;90.60;50.80;;;18.70;99.90;;;;;;5030546;28;20159;-86
2023/08/01 07:24:00;;;;;;;84.20;34.40;;;18.70;99.90;;;;;;5030097;28;20162;-85
2023/08/01 07:26:28;;;;;;;78.57;22.20;;;18.70;99.90;;;;;;5029014;28;20408;-84
2023/08/01 07:28:54;;;;;;;76.57;15.80;;;18.60;99.90;;;;;;5031936;28;20616;-85
2023/08/01 07:31:19;;;;;;;77.23;15.57;;;18.60;99.90;;;;;;5029059;28;20429;-86
2023/08/01 07:33:45;;;;;;;82.47;20.67;;;18.50;99.90;;;;;;5030376;28;20177;-86
2023/08/01 07:36:11;;;;;;;79.57;21.10;;;18.50;99.90;;;;;;5027366;28;20274;-86
2023/08/01 07:38:36;;;;;;;80.90;20.33;;;18.50;99.90;;;;;;5008615;28;20190;-85
2023/08/01 07:41:07;;;;;;;82.17;29.07;;;18.50;99.90;;;;;;5027004;28;20178;-85
2023/08/01 07:43:33;;;;;;;82.37;22.17;;;18.50;99.90;;;;;;5012851;28;20665;-87
2023/08/01 07:45:59;;;;;;;81.43;21.67;;;18.60;99.90;;;;;;5029306;28;20408;-86
2023/08/01 07:48:25;;;;;;;82.13;22.07;;;18.60;99.90;;;;;;5027403;28;20190;-85
2023/08/01 07:50:51;;;;;;;78.80;19.80;;;18.50;99.90;;;;;;5009951;28;20436;-86
2023/08/01 07:53:17;;;;;;;80.83;19.27;;;18.50;99.90;;;;;;5010719;28;20170;-85
2023/08/01 07:55:42;;;;;;;78.13;19.17;;;18.30;99.90;;;;;;5027182;28;20441;-86
2023/08/01 07:58:08;;;;;;;80.93;27.43;;;18.30;99.90;;;;;;5026141;28;20153;-85
2023/08/01 08:00:37;;;;;;;88.30;46.50;;;18.30;99.90;;;;;;5007220;28;20167;-85
2023/08/01 08:03:03;;;;;;;104.73;65.03;;;18.40;99.90;;;;;;5006981;28;20170;-86
2023/08/01 08:05:28;;;;;;;91.03;49.13;;;18.50;99.90;;;;;;5025023;28;20459;-86
2023/08/01 08:07:54;;;;;;;96.63;50.50;;;18.50;99.90;;;;;;5023946;28;20170;-86
2023/08/01 08:10:20;;;;;;;87.63;32.43;;;18.60;99.90;;;;;;5006850;28;20212;-85
2023/08/01 08:12:45;;;;;;;80.20;18.57;;;18.80;99.90;;;;;;5021161;28;20261;-85
2023/08/01 08:15:13;;;;;;;82.20;15.90;;;18.80;99.90;;;;;;5022574;28;20248;-86
2023/08/01 08:17:39;;;;;;;80.30;14.37;;;18.90;99.90;;;;;;5023291;28;20162;-86
2023/08/01 08:20:06;;;;;;;76.97;13.17;;;19.00;99.90;;;;;;5036758;22;20527;-85
2023/08/01 08:22:31;;;;;;;83.47;11.90;;;19.00;99.90;;;;;;5018757;28;20154;-84
2023/08/01 08:24:57;;;;;;;78.93;15.00;;;19.00;99.90;;;;;;5000375;28;20409;-83
2023/08/01 08:27:23;;;;;;;76.17;11.20;;;19.10;99.90;;;;;;5000603;28;20578;-84
2023/08/01 08:29:49;;;;;;;77.83;9.80;;;19.30;99.90;;;;;;4999831;28;20189;-84
2023/08/01 08:32:15;;;;;;;74.27;8.13;;;19.40;99.90;;;;;;5017511;28;20165;-82
2023/08/01 08:34:40;;;;;;;78.63;10.33;;;19.30;99.90;;;;;;5018308;28;20443;-82
2023/08/01 08:37:06;;;;;;;74.90;9.50;;;19.30;99.90;;;;;;5018687;28;20166;-82
2023/08/01 08:42:53;;;;;;;78.27;23.80;;;19.50;99.90;;;;;;5012269;28;20185;-82
2023/08/01 08:45:22;;;;;;;81.27;22.87;;;19.60;99.90;;;;;;5017455;28;20401;-82
2023/08/01 08:48:00;;;;;;;79.40;17.13;;;19.80;99.90;;;;;;5017811;28;20764;-83
2023/08/01 08:50:27;;;;;;;84.67;35.43;;;20.00;99.90;;;;;;4998923;28;20455;-82
2023/08/01 08:52:53;;;;;;;75.50;12.47;;;20.10;99.90;;;;;;4998471;28;20890;-82
2023/08/01 08:55:22;;;;;;;81.13;11.70;;;20.10;99.90;;;;;;4998286;28;20453;-82
2023/08/01 08:57:52;;;;;;;77.67;13.27;;;20.20;99.90;;;;;;4980954;28;20402;-81
2023/08/01 09:00:19;;;;;;;78.93;14.40;;;20.30;99.90;;;;;;4996697;28;20430;-82
2023/08/01 09:02:44;;;;;;;73.30;10.70;;;20.40;99.90;;;;;;4998035;28;20428;-82
2023/08/01 09:05:10;;;;;;;80.40;23.83;;;20.40;99.90;;;;;;4998812;28;20968;-81
2023/08/01 09:07:42;;;;;;;76.80;14.80;;;20.40;99.90;;;;;;4997562;28;20214;-82
2023/08/01 09:10:08;;;;;;;81.00;26.80;;;20.40;99.90;;;;;;4980175;28;20190;-81
2023/08/01 09:12:35;;;;;;;89.80;20.33;;;20.40;99.90;;;;;;4998111;28;20438;-82
2023/08/01 09:15:01;;;;;;;80.23;21.13;;;20.50;99.90;;;;;;4997949;28;20801;-81
2023/08/01 09:17:27;;;;;;;80.17;21.20;;;20.60;99.90;;;;;;4997645;28;20888;-81
2023/08/01 09:20:10;;;;;;;81.93;21.73;;;20.70;99.90;;;;;;4997326;28;20420;-81
2023/08/01 09:22:45;;;;;;;81.70;20.10;;;20.80;99.90;;;;;;4997701;28;20172;-81
2023/08/01 09:25:12;;;;;;;77.90;20.67;;;20.80;99.90;;;;;;4997242;28;20386;-81
2023/08/01 09:27:38;;;;;;;77.03;20.30;;;20.80;99.90;;;;;;4997364;28;20910;-81
2023/08/01 09:30:13;;;;;;;79.90;17.47;;;20.80;99.90;;;;;;4996975;28;20572;-82
2023/08/01 09:32:39;;;;;;;78.57;20.93;;;20.70;99.90;;;;;;4997317;28;20458;-81
2023/08/01 09:35:05;;;;;;;76.73;18.60;;;20.70;99.90;;;;;;4979323;28;20453;-82
2023/08/01 09:37:41;;;;;;;78.10;22.10;;;20.80;99.90;;;;;;4997276;28;20766;-82
2023/08/01 09:40:08;;;;;;;79.00;19.60;;;20.90;99.90;;;;;;4979107;28;20451;-81
2023/08/01 09:42:41;;;;;;;78.47;14.90;;;21.10;93.50;;;;;;4997526;28;20407;-81
2023/08/01 09:45:18;;;;;;;77.77;11.87;;;21.20;53.30;;;;;;4979101;28;20918;-81
2023/08/01 09:47:45;;;;;;;72.57;7.60;;;21.50;32.60;;;;;;4996617;28;20408;-81
2023/08/01 09:50:12;;;;;;;74.50;7.23;;;21.60;23.40;;;;;;4996672;28;20430;-82
2023/08/01 09:52:38;;;;;;;78.30;7.03;;;21.60;13.70;;;;;;4996238;28;20859;-81
2023/08/01 09:55:05;;;;;;;73.10;6.40;;;21.50;16.10;;;;;;4978716;28;20484;-82
2023/08/01 09:57:31;;;;;;;76.50;6.53;;;21.40;15.50;;;;;;4979208;28;20402;-81
2023/08/01 09:59:57;;;;;;;75.00;10.03;;;21.40;20.60;;;;;;4977755;28;20798;-80
2023/08/01 10:02:26;;;;;;;74.13;10.37;;;21.40;42.70;;;;;;4995922;28;20434;-81
2023/08/01 10:04:54;;;;;;;74.67;10.63;;;21.50;50.10;;;;;;4996477;28;20492;-81
2023/08/01 10:07:26;;;;;;;76.90;11.00;;;21.40;50.90;;;;;;4996569;28;20407;-81
2023/08/01 10:09:57;;;;;;;74.90;11.23;;;21.30;52.60;;;;;;4996661;28;20453;-81
2023/08/01 10:12:26;;;;;;;74.80;10.70;;;21.30;51.20;;;;;;4996468;28;20388;-82
2023/08/01 10:14:59;;;;;;;76.50;8.70;;;21.40;43.90;;;;;;4996779;28;20456;-81
2023/08/01 10:17:29;;;;;;;75.83;7.70;;;21.50;26.40;;;;;;4996445;28;20894;-82
2023/08/01 10:19:59;;;;;;;75.33;7.37;;;21.60;19.70;;;;;;4996434;28;20430;-81
2023/08/01 10:22:25;;;;;;;72.77;6.97;;;21.80;21.90;;;;;;4996844;28;20404;-81
2023/08/01 10:24:52;;;;;;;73.10;6.70;;;22.00;13.70;;;;;;4997731;28;20879;-82
2023/08/01 10:27:21;;;;;;;73.20;5.97;;;22.20;4.00;;;;;;4997020;28;20825;-81
2023/08/01 10:29:58;;;;;;;73.87;5.33;;;22.10;3.60;;;;;;4996517;28;20948;-82
2023/08/01 10:32:38;;;;;;;73.50;5.00;;;22.10;1.00;;;;;;4995916;28;20499;-82
2023/08/01 10:35:04;;;;;;;75.50;5.70;;;21.90;1.00;;;;;;4996608;28;20441;-82
2023/08/01 10:37:45;;;;;;;74.63;5.47;;;21.80;1.00;;;;;;4978547;28;20487;-80
2023/08/01 10:40:11;;;;;;;73.43;4.90;;;21.70;1.00;;;;;;4995939;28;20458;-81
2023/08/01 10:42:40;;;;;;;72.07;4.73;;;21.80;1.00;;;;;;4995958;28;20406;-81
2023/08/01 10:45:21;;;;;;;71.80;4.70;;;22.20;1.50;;;;;;4996598;28;20205;-81
2023/08/01 10:47:47;;;;;;;72.70;5.07;;;22.60;1.00;;;;;;4978826;28;20462;-81
2023/08/01 10:50:17;;;;;;;72.03;6.97;;;22.90;1.00;;;;;;4996363;28;20425;-81
2023/08/01 10:52:43;;;;;;;75.13;16.57;;;23.20;1.00;;;;;;4978294;28;20405;-81
2023/08/01 10:55:09;;;;;;;76.17;19.67;;;23.40;1.00;;;;;;4996381;28;20963;-81
2023/08/01 10:57:38;;;;;;;79.60;24.70;;;23.40;1.00;;;;;;4996422;28;20429;-82
2023/08/01 11:00:09;;;;;;;75.17;17.37;;;23.60;1.00;;;;;;4996225;28;20782;-81
2023/08/01 11:02:35;;;;;;;73.87;13.10;;;23.50;1.00;;;;;;4979283;28;20436;-80
2023/08/01 11:05:05;;;;;;;78.33;18.13;;;23.60;1.00;;;;;;4995895;28;20914;-81
2023/08/01 11:07:31;;;;;;;77.40;18.03;;;23.90;1.00;;;;;;4996277;28;20159;-81
2023/08/01 11:10:05;;;;;;;71.47;6.93;;;24.20;1.00;;;;;;4996739;28;20429;-82
2023/08/01 11:12:37;;;;;;;72.20;4.83;;;24.10;1.00;;;;;;4999841;28;20811;-81
2023/08/01 11:15:07;;;;;;;71.77;4.13;;;23.80;1.00;;;;;;5000117;28;20445;-81
2023/08/01 11:17:34;;;;;;;72.90;5.10;;;23.60;1.00;;;;;;4982288;28;20406;-81
2023/08/01 11:20:08;;;;;;;71.50;4.73;;;23.40;1.00;;;;;;4981808;28;20492;-81
2023/08/01 11:22:34;;;;;;;71.77;6.27;;;23.60;1.00;;;;;;4982418;28;20804;-82
2023/08/01 11:25:00;;;;;;;73.67;8.03;;;24.00;1.00;;;;;;4999121;28;20422;-81
2023/08/01 11:27:27;;;;;;;72.27;8.43;;;23.90;1.00;;;;;;4982640;28;20421;-82
2023/08/01 11:29:54;;;;;;;74.30;8.03;;;23.90;1.00;;;;;;4999811;28;20434;-81
2023/08/01 11:32:20;;;;;;;74.87;7.70;;;24.20;1.00;;;;;;4998907;28;20413;-81
2023/08/01 11:34:46;;;;;;;72.40;9.70;;;24.20;1.00;;;;;;4999068;28;20484;-80
2023/08/01 11:37:13;;;;;;;72.47;9.83;;;23.90;1.00;;;;;;4999646;28;20418;-81
2023/08/01 11:39:40;;;;;;;74.10;10.03;;;23.60;1.00;;;;;;4997902;28;20445;-81
2023/08/01 11:42:06;;;;;;;73.57;10.00;;;23.80;1.00;;;;;;4981585;28;20429;-81
2023/08/01 11:44:32;;;;;;;72.87;6.43;;;23.90;1.00;;;;;;4998506;28;20778;-82
2023/08/01 11:46:58;;;;;;;74.17;10.80;;;23.70;1.00;;;;;;4999274;28;20418;-81
2023/08/01 11:49:23;;;;;;;72.87;8.70;;;23.50;1.00;;;;;;4998321;28;20197;-81
2023/08/01 11:51:49;;;;;;;71.60;6.57;;;23.20;1.00;;;;;;4998142;28;20175;-81
2023/08/01 11:54:17;;;;;;;74.87;12.00;;;22.80;1.00;;;;;;4998140;28;20274;-81
2023/08/01 11:56:43;;;;;;;73.37;12.90;;;22.50;1.00;;;;;;4998011;28;20412;-81
2023/08/01 11:59:14;;;;;;;75.50;11.40;;;22.20;1.00;;;;;;4980828;28;20434;-81
2023/08/01 12:01:41;;;;;;;77.93;18.93;;;22.30;1.00;;;;;;4998295;28;20413;-81
2023/08/01 12:04:07;;;;;;;78.23;17.47;;;22.50;1.00;;;;;;4980751;28;20918;-81
2023/08/01 12:06:33;;;;;;;72.80;11.87;;;22.50;1.00;;;;;;4997999;28;20420;-81
2023/08/01 12:09:10;;;;;;;77.57;20.67;;;22.50;1.00;;;;;;4998222;28;20425;-81
2023/08/01 12:11:37;;;;;;;73.37;15.20;;;22.70;1.00;;;;;;4998445;28;20398;-82
2023/08/01 12:14:15;;;;;;;78.47;17.20;;;22.80;1.00;;;;;;4997947;28;20437;-81
2023/08/01 12:16:46;;;;;;;72.27;8.10;;;22.70;1.00;;;;;;4998488;28;20405;-81
2023/08/01 12:19:21;;;;;;;76.17;16.57;;;22.80;1.00;;;;;;4980463;28;20433;-81
2023/08/01 12:21:47;;;;;;;75.97;16.43;;;22.70;1.00;;;;;;4997136;28;20378;-81
2023/08/01 12:24:13;;;;;;;78.93;23.00;;;22.70;1.00;;;;;;4997618;28;20751;-81
2023/08/01 12:26:38;;;;;;;78.57;24.97;;;22.70;1.00;;;;;;4997951;28;20382;-81
2023/08/01 12:29:04;;;;;;;80.50;24.43;;;22.70;1.00;;;;;;4997669;28;20245;-81
2023/08/01 12:31:30;;;;;;;79.83;24.07;;;22.80;1.00;;;;;;4997476;28;20163;-81
2023/08/01 12:33:56;;;;;;;83.23;17.17;;;22.60;1.00;;;;;;4980385;28;20170;-82
2023/08/01 12:36:21;;;;;;;76.17;11.40;;;22.10;33.10;;;;;;4980314;28;20237;-80
2023/08/01 12:38:47;;;;;;;80.50;19.53;;;21.90;60.60;;;;;;4997636;28;20868;-80
2023/08/01 12:41:13;;;;;;;76.17;14.17;;;21.90;90.70;;;;;;4997949;28;20154;-79
2023/08/01 12:43:39;;;;;;;74.50;12.40;;;21.90;97.50;;;;;;4997157;28;20415;-80
2023/08/01 12:46:04;;;;;;;75.80;9.80;;;22.00;97.80;;;;;;4997680;28;20167;-80
2023/08/01 12:48:33;;;;;;;74.27;9.30;;;21.90;91.90;;;;;;4997445;28;20606;-80
2023/08/01 12:50:58;;;;;;;72.10;10.20;;;21.90;98.80;;;;;;4980711;28;20221;-80
2023/08/01 12:53:24;;;;;;;75.17;14.10;;;21.70;99.70;;;;;;4998163;28;20813;-80
2023/08/01 12:55:51;;;;;;;73.37;9.50;;;21.80;99.90;;;;;;4998430;28;20696;-81
2023/08/01 12:58:17;;;;;;;73.67;6.37;;;21.90;97.50;;;;;;4998782;28;20228;-82
2023/08/01 13:00:44;;;;;;;76.83;7.87;;;21.90;87.20;;;;;;4998309;28;20409;-81